createdAt,value
2017-07-16T00:00:14.277Z,5.80
2017-07-16T00:02:41.707Z,6.30
2017-07-16T00:05:09.132Z,6.30
2017-07-16T00:07:37.351Z,6.03
2017-07-16T00:10:04.783Z,5.70
2017-07-16T00:12:32.200Z,6.00
2017-07-16T00:14:59.632Z,6.20
2017-07-16T00:17:27.056Z,5.70
2017-07-16T00:19:54.536Z,5.57
2017-07-16T00:22:21.940Z,5.90
2017-07-16T00:24:49.363Z,5.80
2017-07-16T00:27:16.788Z,5.63
2017-07-16T00:29:44.221Z,5.80
2017-07-16T00:32:11.632Z,5.27
2017-07-16T00:34:39.077Z,5.37
2017-07-16T00:37:06.506Z,5.37
2017-07-16T00:39:33.935Z,5.80
2017-07-16T00:42:01.392Z,5.23
2017-07-16T00:44:28.832Z,5.50
2017-07-16T00:46:56.260Z,5.30
2017-07-16T00:49:23.696Z,5.00
2017-07-16T00:51:51.117Z,4.77
2017-07-16T00:54:18.557Z,5.50
2017-07-16T00:56:45.976Z,4.40
2017-07-16T00:59:13.429Z,5.43
2017-07-16T01:01:40.847Z,5.83
2017-07-16T01:04:08.285Z,5.20
2017-07-16T01:06:35.719Z,5.43
2017-07-16T01:09:03.179Z,4.80
2017-07-16T01:11:30.608Z,4.60
2017-07-16T01:13:58.047Z,4.67
2017-07-16T01:16:25.467Z,4.37
2017-07-16T01:18:52.900Z,5.17
2017-07-16T01:21:20.415Z,4.03
2017-07-16T01:23:48.596Z,4.20
2017-07-16T01:26:22.783Z,5.17
2017-07-16T01:28:50.200Z,5.10
2017-07-16T01:31:17.636Z,4.20
2017-07-16T01:33:45.073Z,4.63
2017-07-16T01:36:13.256Z,4.70
2017-07-16T01:38:40.692Z,4.07
2017-07-16T01:41:08.879Z,4.63
2017-07-16T01:43:37.078Z,4.00
2017-07-16T01:46:04.501Z,4.30
2017-07-16T01:48:32.704Z,4.70
2017-07-16T01:51:00.131Z,4.20
2017-07-16T01:53:27.565Z,4.00
2017-07-16T01:55:54.989Z,3.83
2017-07-16T01:58:22.416Z,4.03
2017-07-16T02:00:49.848Z,4.43
2017-07-16T02:03:17.280Z,4.50
2017-07-16T02:05:44.719Z,4.80
2017-07-16T02:08:12.148Z,4.00
2017-07-16T02:10:39.579Z,5.10
2017-07-16T02:13:06.998Z,5.13
2017-07-16T02:15:34.424Z,4.60
2017-07-16T02:18:01.860Z,5.10
2017-07-16T02:20:30.063Z,4.50
2017-07-16T02:22:57.467Z,4.57
2017-07-16T02:25:24.900Z,4.27
2017-07-16T02:27:52.324Z,3.93
2017-07-16T02:30:19.753Z,4.00
2017-07-16T02:32:47.175Z,4.03
2017-07-16T02:35:14.613Z,4.50
2017-07-16T02:37:42.027Z,4.63
2017-07-16T02:40:10.226Z,3.87
2017-07-16T02:42:37.659Z,4.23
2017-07-16T02:45:05.858Z,4.40
2017-07-16T02:47:33.280Z,4.07
2017-07-16T02:50:01.480Z,4.03
2017-07-16T02:52:28.910Z,3.53
2017-07-16T02:54:56.339Z,3.70
2017-07-16T02:57:23.764Z,4.17
2017-07-16T02:59:51.188Z,4.30
2017-07-16T03:02:18.616Z,3.97
2017-07-16T03:04:46.092Z,4.27
2017-07-16T03:07:13.528Z,4.20
2017-07-16T03:09:40.960Z,4.83
2017-07-16T03:12:08.398Z,4.30
2017-07-16T03:14:35.827Z,3.60
2017-07-16T03:17:03.263Z,3.87
2017-07-16T03:19:30.699Z,3.80
2017-07-16T03:21:58.140Z,3.67
2017-07-16T03:24:25.569Z,3.70
2017-07-16T03:26:52.993Z,2.93
2017-07-16T03:29:20.424Z,3.97
2017-07-16T03:31:47.852Z,3.33
2017-07-16T03:34:15.273Z,3.90
2017-07-16T03:36:42.705Z,3.87
2017-07-16T03:39:10.131Z,3.87
2017-07-16T03:41:37.556Z,3.53
2017-07-16T03:44:04.978Z,3.90
2017-07-16T03:46:32.410Z,3.80
2017-07-16T03:48:59.841Z,3.77
2017-07-16T03:51:27.269Z,4.07
2017-07-16T03:53:54.931Z,4.17
2017-07-16T03:56:23.137Z,3.77
2017-07-16T03:58:50.563Z,3.53
2017-07-16T04:01:17.981Z,3.77
2017-07-16T04:03:46.407Z,3.63
2017-07-16T04:06:14.587Z,3.53
2017-07-16T04:08:42.026Z,3.70
2017-07-16T04:11:09.449Z,3.90
2017-07-16T04:13:36.880Z,3.60
2017-07-16T04:16:04.309Z,3.93
2017-07-16T04:18:32.500Z,3.87
2017-07-16T04:20:59.934Z,4.10
2017-07-16T04:23:28.124Z,3.70
2017-07-16T04:25:55.548Z,3.67
2017-07-16T04:28:22.980Z,4.10
2017-07-16T04:30:50.404Z,3.47
2017-07-16T04:33:17.837Z,3.63
2017-07-16T04:35:46.032Z,3.80
2017-07-16T04:38:13.471Z,4.00
2017-07-16T04:40:41.670Z,4.10
2017-07-16T04:43:09.112Z,4.27
2017-07-16T04:45:36.545Z,3.97
2017-07-16T04:48:03.976Z,4.17
2017-07-16T04:50:31.412Z,4.57
2017-07-16T04:52:58.856Z,3.40
2017-07-16T04:55:26.282Z,4.07
2017-07-16T04:57:53.714Z,3.77
2017-07-16T05:00:21.144Z,3.33
2017-07-16T05:02:48.572Z,3.93
2017-07-16T05:05:16.000Z,3.90
2017-07-16T05:07:44.192Z,3.77
2017-07-16T05:10:12.405Z,3.80
2017-07-16T05:12:39.833Z,3.40
2017-07-16T05:15:07.279Z,3.47
2017-07-16T05:17:35.468Z,3.70
2017-07-16T05:20:02.891Z,4.03
2017-07-16T05:22:30.310Z,4.10
2017-07-16T05:24:57.745Z,3.93
2017-07-16T05:27:25.166Z,3.30
2017-07-16T05:29:53.357Z,3.93
2017-07-16T05:32:20.789Z,3.50
2017-07-16T05:34:48.220Z,3.77
2017-07-16T05:37:15.642Z,3.50
2017-07-16T05:39:43.063Z,3.30
2017-07-16T05:42:11.256Z,3.23
2017-07-16T05:44:38.694Z,3.17
2017-07-16T05:47:06.116Z,3.47
2017-07-16T05:49:33.543Z,3.37
2017-07-16T05:52:00.968Z,3.00
2017-07-16T05:54:28.396Z,3.60
2017-07-16T05:56:55.827Z,4.90
2017-07-16T05:59:23.260Z,4.67
2017-07-16T06:01:51.460Z,3.67
2017-07-16T06:04:18.884Z,4.30
2017-07-16T06:06:46.317Z,4.37
2017-07-16T06:09:13.738Z,5.03
2017-07-16T06:11:41.163Z,3.70
2017-07-16T06:14:08.594Z,4.40
2017-07-16T06:16:36.792Z,4.50
2017-07-16T06:19:04.222Z,3.30
2017-07-16T06:21:31.638Z,4.30
2017-07-16T06:23:59.059Z,4.40
2017-07-16T06:26:26.497Z,5.20
2017-07-16T06:28:54.687Z,5.33
2017-07-16T06:31:23.157Z,4.50
2017-07-16T06:33:51.627Z,4.50
2017-07-16T06:36:19.832Z,4.90
2017-07-16T06:38:47.261Z,4.70
2017-07-16T06:41:15.460Z,4.77
2017-07-16T06:43:42.885Z,5.20
2017-07-16T06:46:10.315Z,4.33
2017-07-16T06:48:37.741Z,5.43
2017-07-16T06:51:05.171Z,5.30
2017-07-16T06:53:33.355Z,4.80
2017-07-16T06:56:00.812Z,5.57
2017-07-16T06:58:28.241Z,5.30
2017-07-16T07:00:55.661Z,5.10
2017-07-16T07:03:23.113Z,4.57
2017-07-16T07:05:50.535Z,5.47
2017-07-16T07:08:17.973Z,4.40
2017-07-16T07:10:46.162Z,5.00
2017-07-16T07:13:14.356Z,4.87
2017-07-16T07:15:41.783Z,4.53
2017-07-16T07:18:09.989Z,4.47
2017-07-16T07:20:37.412Z,4.50
2017-07-16T07:23:05.608Z,4.00
2017-07-16T07:25:33.038Z,3.93
2017-07-16T07:28:00.460Z,4.07
2017-07-16T07:30:27.887Z,4.30
2017-07-16T07:32:55.370Z,4.50
2017-07-16T07:35:22.783Z,4.37
2017-07-16T07:37:50.224Z,4.20
2017-07-16T07:40:18.429Z,4.23
2017-07-16T07:42:45.870Z,3.60
2017-07-16T07:45:14.084Z,4.47
2017-07-16T07:47:42.520Z,3.50
2017-07-16T07:50:10.716Z,3.83
2017-07-16T07:52:38.155Z,3.80
2017-07-16T07:55:06.349Z,3.63
2017-07-16T07:57:33.823Z,4.10
2017-07-16T08:00:01.252Z,3.80
2017-07-16T08:02:28.766Z,4.30
2017-07-16T08:04:56.183Z,3.67
2017-07-16T08:07:25.653Z,4.00
2017-07-16T08:09:53.857Z,3.20
2017-07-16T08:12:22.300Z,3.47
2017-07-16T08:14:49.738Z,3.30
2017-07-16T08:17:23.016Z,3.60
2017-07-16T08:19:50.454Z,2.77
2017-07-16T08:22:17.873Z,3.40
2017-07-16T08:24:46.068Z,2.97
2017-07-16T08:27:13.492Z,3.00
2017-07-16T08:29:40.920Z,3.03
2017-07-16T08:32:08.361Z,3.43
2017-07-16T08:34:35.794Z,2.87
2017-07-16T08:37:03.216Z,3.77
2017-07-16T08:39:30.644Z,3.13
2017-07-16T08:41:58.072Z,3.20
2017-07-16T08:44:25.504Z,2.90
2017-07-16T08:46:53.725Z,3.33
2017-07-16T08:49:21.160Z,2.80
2017-07-16T08:51:48.598Z,4.00
2017-07-16T08:54:16.798Z,2.83
2017-07-16T08:56:44.221Z,2.87
2017-07-16T08:59:12.415Z,2.73
2017-07-16T09:01:39.924Z,2.50
2017-07-16T09:04:07.349Z,2.90
2017-07-16T09:06:34.792Z,2.90
2017-07-16T09:09:02.213Z,2.60
2017-07-16T09:11:29.649Z,2.70
2017-07-16T09:13:57.081Z,2.50
2017-07-16T09:16:24.507Z,2.50
2017-07-16T09:18:51.932Z,2.30
2017-07-16T09:21:19.365Z,2.40
2017-07-16T09:23:46.806Z,3.07
2017-07-16T09:26:14.233Z,2.30
2017-07-16T09:28:41.656Z,2.20
2017-07-16T09:31:09.085Z,2.97
2017-07-16T09:33:36.504Z,2.03
2017-07-16T09:36:03.931Z,2.67
2017-07-16T09:38:31.352Z,1.90
2017-07-16T09:40:58.800Z,2.43
2017-07-16T09:43:26.230Z,2.90
2017-07-16T09:45:53.665Z,2.30
2017-07-16T09:48:21.089Z,2.90
2017-07-16T09:50:48.521Z,2.33
2017-07-16T09:53:15.951Z,2.00
2017-07-16T09:55:43.381Z,2.57
2017-07-16T09:58:10.808Z,2.57
2017-07-16T10:00:38.247Z,2.50
2017-07-16T10:03:05.685Z,2.30
2017-07-16T10:05:34.098Z,2.40
2017-07-16T10:08:01.525Z,1.90
2017-07-16T10:10:29.084Z,2.63
2017-07-16T10:12:56.511Z,1.90
2017-07-16T10:15:24.705Z,2.20
2017-07-16T10:17:52.136Z,2.50
2017-07-16T10:20:20.333Z,2.37
2017-07-16T10:22:47.767Z,2.10
2017-07-16T10:25:15.194Z,2.53
2017-07-16T10:27:42.633Z,2.47
2017-07-16T10:30:10.063Z,2.63
2017-07-16T10:32:37.492Z,1.93
2017-07-16T10:35:04.912Z,2.43
2017-07-16T10:37:32.358Z,2.40
2017-07-16T10:39:59.780Z,1.80
2017-07-16T10:42:27.986Z,2.60
2017-07-16T10:44:55.495Z,2.50
2017-07-16T10:47:22.929Z,2.53
2017-07-16T10:49:50.364Z,2.13
2017-07-16T10:52:17.800Z,2.37
2017-07-16T10:54:45.238Z,2.17
2017-07-16T10:57:12.671Z,2.60
2017-07-16T10:59:40.136Z,2.10
2017-07-16T11:02:07.571Z,2.57
2017-07-16T11:04:35.002Z,2.37
2017-07-16T11:07:02.509Z,2.83
2017-07-16T11:09:30.701Z,3.00
2017-07-16T11:11:58.136Z,1.70
2017-07-16T11:14:25.560Z,2.30
2017-07-16T11:16:52.989Z,1.47
2017-07-16T11:19:20.415Z,2.10
2017-07-16T11:21:47.844Z,2.30
2017-07-16T11:24:15.266Z,2.13
2017-07-16T11:26:42.699Z,2.87
2017-07-16T11:29:10.141Z,1.83
2017-07-16T11:31:37.561Z,1.97
2017-07-16T11:34:05.001Z,2.27
2017-07-16T11:36:32.417Z,2.20
2017-07-16T11:38:59.857Z,2.10
2017-07-16T11:41:27.285Z,2.00
2017-07-16T11:43:54.792Z,2.43
2017-07-16T11:46:22.215Z,1.80
2017-07-16T11:48:49.647Z,1.80
2017-07-16T11:51:17.082Z,2.43
2017-07-16T11:53:44.503Z,2.90
2017-07-16T11:56:11.932Z,2.20
2017-07-16T11:58:39.520Z,2.40
2017-07-16T12:01:07.788Z,2.40
2017-07-16T12:03:43.293Z,2.80
2017-07-16T12:06:11.721Z,2.67
2017-07-16T12:08:39.922Z,3.03
2017-07-16T12:11:07.353Z,3.20
2017-07-16T12:13:35.540Z,2.70
2017-07-16T12:16:02.965Z,2.57
2017-07-16T12:18:30.392Z,2.93
2017-07-16T12:20:57.841Z,3.20
2017-07-16T12:23:25.247Z,3.30
2017-07-16T12:25:52.676Z,2.50
2017-07-16T12:28:20.099Z,2.70
2017-07-16T12:30:47.527Z,2.60
2017-07-16T12:33:15.715Z,3.13
2017-07-16T12:35:43.180Z,2.80
2017-07-16T12:38:10.610Z,2.73
2017-07-16T12:40:38.820Z,3.30
2017-07-16T12:43:06.248Z,2.73
2017-07-16T12:45:34.445Z,2.60
2017-07-16T12:48:01.868Z,2.97
2017-07-16T12:50:30.071Z,2.53
2017-07-16T12:52:57.496Z,2.60
2017-07-16T12:55:24.933Z,2.30
2017-07-16T12:57:52.366Z,2.30
2017-07-16T13:00:20.627Z,2.50
2017-07-16T13:02:48.072Z,2.37
2017-07-16T13:05:16.322Z,2.43
2017-07-16T13:07:43.733Z,2.57
2017-07-16T13:10:11.153Z,1.87
2017-07-16T13:12:38.588Z,2.47
2017-07-16T13:15:06.027Z,2.40
2017-07-16T13:17:33.451Z,2.87
2017-07-16T13:20:00.876Z,2.60
2017-07-16T13:22:29.087Z,2.53
2017-07-16T13:24:56.523Z,2.10
2017-07-16T13:27:23.973Z,2.60
2017-07-16T13:29:51.397Z,2.03
2017-07-16T13:32:18.833Z,2.50
2017-07-16T13:34:46.270Z,1.93
2017-07-16T13:37:17.155Z,2.27
2017-07-16T13:39:44.579Z,2.40
2017-07-16T13:42:15.472Z,2.90
2017-07-16T13:44:42.892Z,2.40
2017-07-16T13:47:10.328Z,3.00
2017-07-16T13:49:39.815Z,2.47
2017-07-16T13:52:07.234Z,1.83
2017-07-16T13:54:34.682Z,2.40
2017-07-16T13:57:02.880Z,2.13
2017-07-16T13:59:30.309Z,2.60
2017-07-16T14:01:57.728Z,2.60
2017-07-16T14:04:25.165Z,3.20
2017-07-16T14:06:52.592Z,2.43
2017-07-16T14:09:20.784Z,1.90
2017-07-16T14:11:48.212Z,2.43
2017-07-16T14:14:15.629Z,3.13
2017-07-16T14:16:43.059Z,2.70
2017-07-16T14:19:10.493Z,3.00
2017-07-16T14:21:38.683Z,2.27
2017-07-16T14:24:06.125Z,4.10
2017-07-16T14:26:34.317Z,2.43
2017-07-16T14:29:01.749Z,3.23
2017-07-16T14:31:29.949Z,6.60
2017-07-16T14:33:58.357Z,3.53
2017-07-16T14:36:25.766Z,2.27
2017-07-16T14:38:53.975Z,2.70
2017-07-16T14:41:21.490Z,4.37
2017-07-16T14:43:50.272Z,6.00
2017-07-16T14:46:17.732Z,2.20
2017-07-16T14:48:45.161Z,3.10
2017-07-16T14:51:12.585Z,3.10
2017-07-16T14:53:40.033Z,3.00
2017-07-16T14:56:07.456Z,2.87
2017-07-16T14:58:35.669Z,2.83
2017-07-16T15:01:03.127Z,3.03
2017-07-16T15:03:30.605Z,2.73
2017-07-16T15:05:57.995Z,2.87
2017-07-16T15:08:25.470Z,3.20
2017-07-16T15:10:52.970Z,2.30
2017-07-16T15:13:20.381Z,3.00
2017-07-16T15:15:48.576Z,2.70
2017-07-16T15:18:16.004Z,2.60
2017-07-16T15:20:43.481Z,2.70
2017-07-16T15:23:10.859Z,2.23
2017-07-16T15:25:38.291Z,2.70
2017-07-16T15:28:06.484Z,2.50
2017-07-16T15:30:33.920Z,2.50
2017-07-16T15:33:01.340Z,3.10
2017-07-16T15:35:28.771Z,2.63
2017-07-16T15:37:56.209Z,2.20
2017-07-16T15:40:23.642Z,2.70
2017-07-16T15:42:51.064Z,2.57
2017-07-16T15:45:18.501Z,2.67
2017-07-16T15:47:45.929Z,3.43
2017-07-16T15:50:13.369Z,2.60
2017-07-16T15:52:40.797Z,3.50
2017-07-16T15:55:08.240Z,2.37
2017-07-16T15:57:35.668Z,2.90
2017-07-16T16:00:03.205Z,2.87
2017-07-16T16:02:30.618Z,3.20
2017-07-16T16:04:58.056Z,3.00
2017-07-16T16:07:25.492Z,3.17
2017-07-16T16:09:52.934Z,2.47
2017-07-16T16:12:21.123Z,2.77
2017-07-16T16:14:48.572Z,2.80
2017-07-16T16:17:16.005Z,2.70
2017-07-16T16:19:43.433Z,2.60
2017-07-16T16:22:10.883Z,2.50
2017-07-16T16:24:38.378Z,2.93
2017-07-16T16:27:05.813Z,3.20
2017-07-16T16:29:33.246Z,3.83
2017-07-16T16:32:00.676Z,3.43
2017-07-16T16:34:28.100Z,4.90
2017-07-16T16:36:56.297Z,4.20
2017-07-16T16:39:23.723Z,5.67
2017-07-16T16:41:51.183Z,3.00
2017-07-16T16:44:18.593Z,5.00
2017-07-16T16:46:46.016Z,2.77
2017-07-16T16:49:13.470Z,2.90
2017-07-16T16:51:40.901Z,2.80
2017-07-16T16:54:08.324Z,2.83
2017-07-16T16:56:35.757Z,2.40
2017-07-16T16:59:03.195Z,2.93
2017-07-16T17:01:31.032Z,3.00
2017-07-16T17:03:58.492Z,2.97
2017-07-16T17:06:25.912Z,3.83
2017-07-16T17:08:53.340Z,4.60
2017-07-16T17:11:20.772Z,4.53
2017-07-16T17:13:48.964Z,3.57
2017-07-16T17:16:16.402Z,3.43
2017-07-16T17:18:43.822Z,3.07
2017-07-16T17:21:11.249Z,3.37
2017-07-16T17:23:38.685Z,3.43
2017-07-16T17:26:06.109Z,2.80
2017-07-16T17:28:33.544Z,3.10
2017-07-16T17:31:00.977Z,2.80
2017-07-16T17:33:28.408Z,3.60
2017-07-16T17:35:56.603Z,2.93
2017-07-16T17:38:24.028Z,2.80
2017-07-16T17:40:51.453Z,3.03
2017-07-16T17:43:18.885Z,3.20
2017-07-16T17:45:46.312Z,3.03
2017-07-16T17:48:13.744Z,4.03
2017-07-16T17:50:41.189Z,2.93
2017-07-16T17:53:11.948Z,2.93
2017-07-16T17:55:40.136Z,3.40
2017-07-16T17:58:07.577Z,3.10
2017-07-16T18:03:25.511Z,3.63
2017-07-16T18:05:53.001Z,3.93
2017-07-16T18:08:20.450Z,3.60
2017-07-16T18:10:47.920Z,3.30
2017-07-16T18:13:16.118Z,3.37
2017-07-16T18:15:43.551Z,3.47
2017-07-16T18:18:10.993Z,3.73
2017-07-16T18:20:38.427Z,3.30
2017-07-16T18:23:05.860Z,3.50
2017-07-16T18:25:33.293Z,2.90
2017-07-16T18:28:00.824Z,3.60
2017-07-16T18:30:28.252Z,3.77
2017-07-16T18:32:55.710Z,4.30
2017-07-16T18:35:23.144Z,4.57
2017-07-16T18:37:50.584Z,3.47
2017-07-16T18:40:18.019Z,4.20
2017-07-16T18:42:46.241Z,4.50
2017-07-16T18:45:13.677Z,4.77
2017-07-16T18:47:41.104Z,4.50
2017-07-16T18:50:08.550Z,3.97
2017-07-16T18:52:36.026Z,3.40
2017-07-16T18:55:03.460Z,3.77
2017-07-16T18:57:32.883Z,4.33
2017-07-16T19:00:00.332Z,4.10
2017-07-16T19:02:28.526Z,4.00
2017-07-16T19:04:55.966Z,4.60
2017-07-16T19:07:23.429Z,4.03
2017-07-16T19:09:51.639Z,3.90
2017-07-16T19:12:19.078Z,4.23
2017-07-16T19:14:46.519Z,4.00
2017-07-16T19:17:14.727Z,4.73
2017-07-16T19:19:43.158Z,4.43
2017-07-16T19:22:10.596Z,4.60
2017-07-16T19:24:38.024Z,4.50
2017-07-16T19:27:05.482Z,4.67
2017-07-16T19:29:32.905Z,4.43
2017-07-16T19:32:00.340Z,4.50
2017-07-16T19:34:27.793Z,4.80
2017-07-16T19:36:55.231Z,4.30
2017-07-16T19:39:22.659Z,3.73
2017-07-16T19:41:50.099Z,3.97
2017-07-16T19:44:17.520Z,4.60
2017-07-16T19:46:45.741Z,5.37
2017-07-16T19:49:17.150Z,5.10
2017-07-16T19:51:45.362Z,4.60
2017-07-16T19:54:13.806Z,3.53
2017-07-16T19:56:42.017Z,5.30
2017-07-16T19:59:09.450Z,4.50
2017-07-16T20:01:37.644Z,4.17
2017-07-16T20:04:05.117Z,4.47
2017-07-16T20:06:32.529Z,4.57
2017-07-16T20:08:59.952Z,4.20
2017-07-16T20:11:27.389Z,4.00
2017-07-16T20:13:54.828Z,4.43
2017-07-16T20:16:22.264Z,4.70
2017-07-16T20:18:50.480Z,5.03
2017-07-16T20:21:17.906Z,4.50
2017-07-16T20:23:45.351Z,5.03
2017-07-16T20:26:12.784Z,4.30
2017-07-16T20:28:40.209Z,3.70
2017-07-16T20:31:07.702Z,4.10
2017-07-16T20:33:35.131Z,4.60
2017-07-16T20:36:02.569Z,4.83
2017-07-16T20:38:30.050Z,5.20
2017-07-16T20:40:57.488Z,5.17
2017-07-16T20:43:24.988Z,4.23
2017-07-16T20:45:52.406Z,4.70
2017-07-16T20:48:19.849Z,4.70
2017-07-16T20:50:47.275Z,5.27
2017-07-16T20:53:15.488Z,4.77
2017-07-16T20:55:43.746Z,4.60
2017-07-16T20:58:11.223Z,4.70
2017-07-16T21:00:38.654Z,4.67
2017-07-16T21:03:06.090Z,4.80
2017-07-16T21:05:33.518Z,4.53
2017-07-16T21:08:00.949Z,5.40
2017-07-16T21:10:28.391Z,5.10
2017-07-16T21:12:55.925Z,4.87
2017-07-16T21:15:24.134Z,4.77
2017-07-16T21:17:51.572Z,5.00
2017-07-16T21:20:19.006Z,4.93
2017-07-16T21:22:47.208Z,4.80
2017-07-16T21:25:15.221Z,5.37
2017-07-16T21:27:42.829Z,5.33
2017-07-16T21:30:10.259Z,5.80
2017-07-16T21:32:40.469Z,6.30
2017-07-16T21:35:07.902Z,5.17
2017-07-16T21:37:35.344Z,4.57
2017-07-16T21:40:03.069Z,5.13
2017-07-16T21:42:31.747Z,5.87
2017-07-16T21:44:59.177Z,4.80
2017-07-16T21:47:26.608Z,5.17
2017-07-16T21:49:54.050Z,6.10
2017-07-16T21:52:21.481Z,5.80
2017-07-16T21:54:49.686Z,6.00
2017-07-16T21:57:17.115Z,4.97
2017-07-16T21:59:44.566Z,5.37
2017-07-16T22:02:12.757Z,5.63
2017-07-16T22:04:40.195Z,5.77
2017-07-16T22:07:08.396Z,5.10
2017-07-16T22:09:35.827Z,5.27
2017-07-16T22:12:04.103Z,6.10
2017-07-16T22:14:32.310Z,5.70
2017-07-16T22:16:59.739Z,5.10
2017-07-16T22:19:27.938Z,6.10
2017-07-16T22:21:55.367Z,5.23
2017-07-16T22:24:23.568Z,5.87
2017-07-16T22:26:50.998Z,5.73
2017-07-16T22:29:19.224Z,5.17
2017-07-16T22:31:46.734Z,5.90
2017-07-16T22:37:07.461Z,5.77
2017-07-16T22:39:34.902Z,5.07
2017-07-16T22:42:02.325Z,5.70
2017-07-16T22:44:29.761Z,6.23
2017-07-16T22:46:57.189Z,5.67
2017-07-16T22:49:25.387Z,5.70
2017-07-16T22:51:52.813Z,6.47
2017-07-16T22:54:20.257Z,5.70
2017-07-16T22:56:47.685Z,5.07
2017-07-16T22:59:15.124Z,5.70
2017-07-16T23:01:42.557Z,6.47
2017-07-16T23:04:09.985Z,5.80
2017-07-16T23:06:38.190Z,6.73
2017-07-16T23:09:05.613Z,5.20
2017-07-16T23:11:33.049Z,5.73
2017-07-16T23:14:00.480Z,5.60
2017-07-16T23:16:27.918Z,5.20
2017-07-16T23:18:55.341Z,4.80
2017-07-16T23:21:22.774Z,5.30
2017-07-16T23:23:50.201Z,5.60
2017-07-16T23:26:17.638Z,6.00
2017-07-16T23:28:45.068Z,5.60
2017-07-16T23:31:13.277Z,4.97
2017-07-16T23:33:40.720Z,5.67
2017-07-16T23:36:08.154Z,5.47
2017-07-16T23:38:35.582Z,5.17
2017-07-16T23:41:03.021Z,5.97
2017-07-16T23:43:30.453Z,6.43
2017-07-16T23:45:57.890Z,5.70
2017-07-16T23:48:25.321Z,5.70
2017-07-16T23:50:52.752Z,6.80
2017-07-16T23:53:20.199Z,5.80
2017-07-16T23:55:47.640Z,5.70
2017-07-16T23:58:15.075Z,5.63
